सभी
Kalmar Airport (Kalmar) KLR मौसम
|
Kalmar (KLR / ESMQ)
स्वच्छ आकाश
हल्की हवाएं |
|
14 °C |
KLR Terminal Area Forecast
| Date | Time (CEST) | Flight Rules | Wind Dir. | Speed | Type | Height AGL (ft) | Visibility | Remarks | ||||||
|---|---|---|---|---|---|---|---|---|---|---|---|---|---|---|
Recent KLR METAR history
| Date | Time (CEST) | Flight Rules | Wind Dir. | Speed | Type | Height AGL (ft) | Visibility | Temp (°C) | Temp (°F) | Dew Point (°C) | Dew Point (°F) | Rel. Humid. | Pressure | Density Altitude | Remarks |
|---|---|---|---|---|---|---|---|---|---|---|---|---|---|---|---|
| 02-मई | 23:50 | VFR | 200° | 5 kt | 10000 meters | 14° | 57° | 6° | 42° | 58% | 1012 mb | -67 ft | |||
| 02-मई | 23:20 | VFR | 210° | 5 kt | 10000 meters | 15° | 59° | 6° | 42° | 55% | 1012 mb | 53 ft | |||
| 02-मई | 22:50 | VFR | 210° | 5 kt | 10000 meters | 16° | 60° | 6° | 42° | 51% | 1012 mb | 173 ft | |||
| 02-मई | 22:20 | VFR | 220° | 6 kt | 10000 meters | 16° | 60° | 6° | 42° | 51% | 1012 mb | 173 ft | |||
| 02-मई | 21:50 | VFR | 220° | 6 kt | 10000 meters | 17° | 62° | 6° | 42° | 48% | 1012 mb | 293 ft | |||
| 02-मई | 21:20 | VFR | 210° | 7 kt | 10000 meters | 18° | 64° | 6° | 42° | 45% | 1012 mb | 413 ft | |||
| 02-मई | 20:50 | VFR | 210° | 9 kt | 10000 meters | 19° | 66° | 6° | 42° | 43% | 1012 mb | 533 ft | |||
| 02-मई | 20:20 | VFR | 210° | 10 kt | 10000 meters | 19° | 66° | 6° | 42° | 43% | 1012 mb | 533 ft | |||
| 02-मई | 19:50 | VFR | 210° | 11 kt | 10000 meters | 20° | 68° | 5° | 41° | 37% | 1012 mb | 653 ft | |||
| 02-मई | 19:20 | VFR | 210° | 12 kt | 10000 meters | 21° | 69° | 5° | 41° | 35% | 1012 mb | 773 ft | |||
| 02-मई | 18:50 | VFR | 210° | 11 kt | 10000 meters | 21° | 69° | 5° | 41° | 35% | 1012 mb | 773 ft | |||
| 02-मई | 18:20 | VFR | 200° | 12 kt | 10000 meters | 22° | 71° | 5° | 41° | 33% | 1012 mb | 893 ft | |||
| 02-मई | 17:50 | VFR | 170° | 12 kt | 10000 meters | 23° | 73° | 5° | 41° | 31% | 1013 mb | 983 ft | |||
| 02-मई | 17:20 | VFR | 210° | 12 kt | 10000 meters | 23° | 73° | 5° | 41° | 31% | 1013 mb | 983 ft | |||
| 02-मई | 16:50 | VFR | 200° | 15 kt | 10000 meters | 23° | 73° | 6° | 42° | 33% | 1013 mb | 983 ft | |||
| 02-मई | 16:20 | VFR | 170° | 13 kt | 10000 meters | 24° | 75° | 9° | 48° | 38% | 1014 mb | 1,074 ft | |||
| 02-मई | 15:50 | VFR | 210° | 14 kt | 10000 meters | 23° | 73° | 6° | 42° | 33% | 1014 mb | 954 ft | |||
| 02-मई | 15:20 | VFR | 170° | 14 kt | 10000 meters | 24° | 75° | 5° | 41° | 29% | 1015 mb | 1,044 ft | |||
| 02-मई | 14:50 | VFR | 220° | 15 kt | 10000 meters | 23° | 73° | 4° | 39° | 29% | 1015 mb | 924 ft | |||
| 02-मई | 14:20 | VFR | 180° | 14 kt | 10000 meters | 24° | 75° | 4° | 39° | 27% | 1016 mb | 1,015 ft | |||
| 02-मई | 13:50 | VFR | 180° | 14 kt | 10000 meters | 24° | 75° | 4° | 39° | 27% | 1016 mb | 1,015 ft | |||
| 02-मई | 13:20 | VFR | 170° | 13 kt | 10000 meters | 22° | 71° | 6° | 42° | 35% | 1016 mb | 775 ft | |||
| 02-मई | 12:50 | VFR | 170° | 12 kt | 10000 meters | 23° | 73° | 3° | 37° | 27% | 1017 mb | 865 ft | |||
| 02-मई | 12:20 | VFR | 210° | 13 kt | 10000 meters | 23° | 73° | 5° | 41° | 31% | 1017 mb | 865 ft |
लॉगिन
| Your browser is unsupported. अपना ब्राऊजर अपग्रेड करें |
